sensor_id;sensor_type;location;lat;lon;timestamp;pressure;altitude;pressure_sealevel;temperature;humidity
64115;BME280;62188;35.640;139.748;2023-04-09T00:02:11;101570.09;;;18.32;13.68
64115;BME280;62188;35.640;139.748;2023-04-09T00:04:36;101565.54;;;18.40;13.41
64115;BME280;62188;35.640;139.748;2023-04-09T00:07:02;101565.13;;;18.11;13.40
64115;BME280;62188;35.640;139.748;2023-04-09T00:09:27;101573.27;;;17.97;13.20
64115;BME280;62188;35.640;139.748;2023-04-09T00:11:53;101573.00;;;17.56;13.37
64115;BME280;62188;35.640;139.748;2023-04-09T00:14:19;101565.03;;;17.84;13.15
64115;BME280;62188;35.640;139.748;2023-04-09T00:16:44;101569.94;;;17.50;13.23
64115;BME280;62188;35.640;139.748;2023-04-09T00:19:10;101570.50;;;17.30;13.47
64115;BME280;62188;35.640;139.748;2023-04-09T00:21:36;101574.74;;;17.93;13.68
64115;BME280;62188;35.640;139.748;2023-04-09T00:24:01;101573.82;;;18.24;13.70
64115;BME280;62188;35.640;139.748;2023-04-09T00:26:27;101577.81;;;18.22;13.94
64115;BME280;62188;35.640;139.748;2023-04-09T00:28:53;101579.51;;;18.46;14.76
64115;BME280;62188;35.640;139.748;2023-04-09T00:31:18;101583.35;;;18.48;13.52
64115;BME280;62188;35.640;139.748;2023-04-09T00:33:44;101586.61;;;19.16;13.56
64115;BME280;62188;35.640;139.748;2023-04-09T00:36:09;101589.83;;;19.14;13.26
64115;BME280;62188;35.640;139.748;2023-04-09T00:38:35;101590.87;;;19.13;13.11
64115;BME280;62188;35.640;139.748;2023-04-09T00:41:01;101596.84;;;19.32;12.93
64115;BME280;62188;35.640;139.748;2023-04-09T00:43:26;101596.31;;;19.02;13.66
64115;BME280;62188;35.640;139.748;2023-04-09T00:45:51;101593.22;;;18.95;13.97
64115;BME280;62188;35.640;139.748;2023-04-09T00:48:17;101592.07;;;18.82;13.98
64115;BME280;62188;35.640;139.748;2023-04-09T00:50:43;101588.26;;;19.24;13.91
64115;BME280;62188;35.640;139.748;2023-04-09T00:53:09;101591.95;;;19.86;15.75
64115;BME280;62188;35.640;139.748;2023-04-09T00:55:34;101586.87;;;19.37;12.95
64115;BME280;62188;35.640;139.748;2023-04-09T00:57:59;101577.40;;;19.31;13.04
64115;BME280;62188;35.640;139.748;2023-04-09T01:00:25;101581.85;;;19.43;13.43
64115;BME280;62188;35.640;139.748;2023-04-09T01:02:50;101576.66;;;19.54;13.27
64115;BME280;62188;35.640;139.748;2023-04-09T01:05:16;101575.70;;;20.08;13.55
64115;BME280;62188;35.640;139.748;2023-04-09T01:07:55;101578.29;;;20.17;12.87
64115;BME280;62188;35.640;139.748;2023-04-09T01:10:12;101576.40;;;20.30;12.82
64115;BME280;62188;35.640;139.748;2023-04-09T01:12:35;101577.80;;;19.87;12.82
64115;BME280;62188;35.640;139.748;2023-04-09T01:15:03;101577.90;;;19.77;12.85
64115;BME280;62188;35.640;139.748;2023-04-09T01:17:26;101578.97;;;20.22;12.97
64115;BME280;62188;35.640;139.748;2023-04-09T01:19:53;101577.56;;;20.26;13.09
64115;BME280;62188;35.640;139.748;2023-04-09T01:22:23;101576.57;;;20.39;13.30
64115;BME280;62188;35.640;139.748;2023-04-09T01:24:46;101572.73;;;20.98;12.65
64115;BME280;62188;35.640;139.748;2023-04-09T01:27:06;101572.90;;;20.97;12.61
64115;BME280;62188;35.640;139.748;2023-04-09T01:29:32;101574.41;;;20.89;12.77
64115;BME280;62188;35.640;139.748;2023-04-09T01:31:55;101576.90;;;21.21;12.66
64115;BME280;62188;35.640;139.748;2023-04-09T01:34:20;101575.29;;;21.20;12.45
64115;BME280;62188;35.640;139.748;2023-04-09T01:36:50;101575.38;;;21.55;12.44
64115;BME280;62188;35.640;139.748;2023-04-09T01:39:11;101575.46;;;21.59;12.52
64115;BME280;62188;35.640;139.748;2023-04-09T01:41:37;101572.50;;;21.33;12.20
64115;BME280;62188;35.640;139.748;2023-04-09T01:44:03;101572.51;;;21.23;12.21
64115;BME280;62188;35.640;139.748;2023-04-09T01:46:28;101569.42;;;21.76;12.07
64115;BME280;62188;35.640;139.748;2023-04-09T01:48:54;101567.48;;;21.36;12.21
64115;BME280;62188;35.640;139.748;2023-04-09T01:51:18;101567.19;;;21.32;11.90
64115;BME280;62188;35.640;139.748;2023-04-09T01:53:43;101568.63;;;21.24;11.61
64115;BME280;62188;35.640;139.748;2023-04-09T01:56:09;101566.73;;;21.24;11.72
64115;BME280;62188;35.640;139.748;2023-04-09T01:58:34;101561.82;;;21.04;11.92
64115;BME280;62188;35.640;139.748;2023-04-09T02:01:04;101554.13;;;21.03;12.15
64115;BME280;62188;35.640;139.748;2023-04-09T02:03:27;101550.85;;;21.32;11.84
64115;BME280;62188;35.640;139.748;2023-04-09T02:05:54;101548.42;;;21.15;12.34
64115;BME280;62188;35.640;139.748;2023-04-09T02:08:19;101541.41;;;21.30;11.93
64115;BME280;62188;35.640;139.748;2023-04-09T02:10:43;101541.12;;;21.89;12.92
64115;BME280;62188;35.640;139.748;2023-04-09T02:13:09;101543.16;;;21.77;13.15
64115;BME280;62188;35.640;139.748;2023-04-09T02:15:35;101536.06;;;21.20;14.36
64115;BME280;62188;35.640;139.748;2023-04-09T02:17:58;101536.98;;;21.07;14.14
64115;BME280;62188;35.640;139.748;2023-04-09T02:20:24;101535.02;;;21.36;12.65
64115;BME280;62188;35.640;139.748;2023-04-09T02:22:49;101536.82;;;22.16;14.08
64115;BME280;62188;35.640;139.748;2023-04-09T02:25:15;101536.95;;;21.76;13.77
64115;BME280;62188;35.640;139.748;2023-04-09T02:27:40;101534.96;;;21.97;12.54
64115;BME280;62188;35.640;139.748;2023-04-09T02:30:07;101528.63;;;21.94;14.04
64115;BME280;62188;35.640;139.748;2023-04-09T02:32:31;101526.73;;;22.38;13.70
64115;BME280;62188;35.640;139.748;2023-04-09T02:34:57;101529.13;;;22.51;12.86
64115;BME280;62188;35.640;139.748;2023-04-09T02:37:22;101523.59;;;22.01;11.77
64115;BME280;62188;35.640;139.748;2023-04-09T02:39:48;101524.27;;;22.02;12.35
64115;BME280;62188;35.640;139.748;2023-04-09T02:42:14;101520.46;;;22.00;13.28
64115;BME280;62188;35.640;139.748;2023-04-09T02:44:39;101518.12;;;22.03;12.17
64115;BME280;62188;35.640;139.748;2023-04-09T02:47:04;101520.30;;;21.96;11.46
64115;BME280;62188;35.640;139.748;2023-04-09T02:49:30;101519.00;;;21.75;11.92
64115;BME280;62188;35.640;139.748;2023-04-09T02:51:55;101520.30;;;21.67;11.77
64115;BME280;62188;35.640;139.748;2023-04-09T02:54:21;101523.96;;;21.09;11.55
64115;BME280;62188;35.640;139.748;2023-04-09T02:56:46;101516.78;;;20.87;12.15
64115;BME280;62188;35.640;139.748;2023-04-09T02:59:11;101514.22;;;21.03;12.22
64115;BME280;62188;35.640;139.748;2023-04-09T03:01:36;101510.11;;;21.73;11.99
64115;BME280;62188;35.640;139.748;2023-04-09T03:04:02;101510.04;;;21.21;12.20
64115;BME280;62188;35.640;139.748;2023-04-09T03:06:27;101512.04;;;21.39;11.78
64115;BME280;62188;35.640;139.748;2023-04-09T03:08:53;101506.73;;;21.99;11.75
64115;BME280;62188;35.640;139.748;2023-04-09T03:11:18;101502.34;;;21.68;11.79
64115;BME280;62188;35.640;139.748;2023-04-09T03:13:44;101500.61;;;22.06;11.93
64115;BME280;62188;35.640;139.748;2023-04-09T03:16:09;101498.63;;;21.74;11.70
64115;BME280;62188;35.640;139.748;2023-04-09T03:18:34;101492.23;;;21.94;11.04
64115;BME280;62188;35.640;139.748;2023-04-09T03:21:03;101489.42;;;22.01;11.21
64115;BME280;62188;35.640;139.748;2023-04-09T03:23:25;101487.47;;;22.05;11.13
64115;BME280;62188;35.640;139.748;2023-04-09T03:28:16;101480.42;;;21.90;11.39
64115;BME280;62188;35.640;139.748;2023-04-09T03:30:42;101485.77;;;21.86;11.72
64115;BME280;62188;35.640;139.748;2023-04-09T03:33:07;101483.07;;;22.02;11.36
64115;BME280;62188;35.640;139.748;2023-04-09T03:35:32;101481.97;;;22.09;11.10
64115;BME280;62188;35.640;139.748;2023-04-09T03:37:58;101481.35;;;22.32;11.69
64115;BME280;62188;35.640;139.748;2023-04-09T03:40:23;101480.24;;;22.46;11.40
64115;BME280;62188;35.640;139.748;2023-04-09T03:42:49;101476.13;;;22.50;11.45
64115;BME280;62188;35.640;139.748;2023-04-09T03:45:15;101472.34;;;22.29;10.98
64115;BME280;62188;35.640;139.748;2023-04-09T03:47:40;101476.85;;;22.59;11.24
64115;BME280;62188;35.640;139.748;2023-04-09T03:50:06;101474.03;;;22.40;11.65
64115;BME280;62188;35.640;139.748;2023-04-09T03:52:31;101473.68;;;22.52;11.05
64115;BME280;62188;35.640;139.748;2023-04-09T03:54:56;101475.62;;;22.42;10.86
64115;BME280;62188;35.640;139.748;2023-04-09T03:57:22;101475.84;;;22.46;10.52
64115;BME280;62188;35.640;139.748;2023-04-09T03:59:47;101468.35;;;22.50;10.66
64115;BME280;62188;35.640;139.748;2023-04-09T04:02:13;101468.46;;;22.57;10.69
64115;BME280;62188;35.640;139.748;2023-04-09T04:04:38;101460.09;;;22.15;10.40
64115;BME280;62188;35.640;139.748;2023-04-09T04:07:04;101456.42;;;22.37;10.73
64115;BME280;62188;35.640;139.748;2023-04-09T04:09:29;101456.40;;;22.23;11.50
64115;BME280;62188;35.640;139.748;2023-04-09T04:11:54;101457.71;;;22.31;10.66
64115;BME280;62188;35.640;139.748;2023-04-09T04:14:20;101454.28;;;22.16;10.34
64115;BME280;62188;35.640;139.748;2023-04-09T04:16:45;101451.93;;;22.10;11.18
64115;BME280;62188;35.640;139.748;2023-04-09T04:19:11;101454.71;;;22.28;11.66
64115;BME280;62188;35.640;139.748;2023-04-09T04:21:36;101457.10;;;22.46;11.29
64115;BME280;62188;35.640;139.748;2023-04-09T04:24:02;101456.86;;;22.49;10.87
64115;BME280;62188;35.640;139.748;2023-04-09T04:26:27;101456.66;;;22.75;11.06
64115;BME280;62188;35.640;139.748;2023-04-09T04:28:53;101457.50;;;22.63;11.03
64115;BME280;62188;35.640;139.748;2023-04-09T04:31:18;101454.04;;;22.55;10.56
64115;BME280;62188;35.640;139.748;2023-04-09T04:33:44;101455.75;;;22.45;10.81
64115;BME280;62188;35.640;139.748;2023-04-09T04:36:11;101456.81;;;22.26;10.48
64115;BME280;62188;35.640;139.748;2023-04-09T04:38:35;101458.32;;;22.27;10.32
64115;BME280;62188;35.640;139.748;2023-04-09T04:41:00;101457.32;;;22.01;10.60
64115;BME280;62188;35.640;139.748;2023-04-09T04:43:26;101453.40;;;21.71;12.70
64115;BME280;62188;35.640;139.748;2023-04-09T04:45:51;101447.07;;;21.57;13.13
64115;BME280;62188;35.640;139.748;2023-04-09T04:48:16;101456.35;;;21.20;12.99
64115;BME280;62188;35.640;139.748;2023-04-09T04:50:41;101455.81;;;20.63;12.96
64115;BME280;62188;35.640;139.748;2023-04-09T04:53:07;101453.94;;;20.44;13.48
64115;BME280;62188;35.640;139.748;2023-04-09T04:55:36;101454.91;;;20.34;13.57
64115;BME280;62188;35.640;139.748;2023-04-09T04:57:58;101455.92;;;20.27;13.68
64115;BME280;62188;35.640;139.748;2023-04-09T05:00:24;101452.88;;;19.93;13.87
64115;BME280;62188;35.640;139.748;2023-04-09T05:02:50;101443.90;;;19.53;14.62
64115;BME280;62188;35.640;139.748;2023-04-09T05:05:15;101442.51;;;19.18;14.47
64115;BME280;62188;35.640;139.748;2023-04-09T05:07:41;101445.08;;;18.91;14.97
64115;BME280;62188;35.640;139.748;2023-04-09T05:10:07;101449.54;;;18.95;15.50
64115;BME280;62188;35.640;139.748;2023-04-09T05:12:32;101447.01;;;18.29;16.00
64115;BME280;62188;35.640;139.748;2023-04-09T05:14:57;101444.19;;;18.30;15.71
64115;BME280;62188;35.640;139.748;2023-04-09T05:17:23;101455.14;;;18.41;15.45
64115;BME280;62188;35.640;139.748;2023-04-09T05:19:52;101451.73;;;18.22;15.21
64115;BME280;62188;35.640;139.748;2023-04-09T05:22:14;101442.96;;;18.03;15.20
64115;BME280;62188;35.640;139.748;2023-04-09T05:24:39;101442.67;;;18.00;15.82
64115;BME280;62188;35.640;139.748;2023-04-09T05:27:05;101443.02;;;18.12;16.41
64115;BME280;62188;35.640;139.748;2023-04-09T05:29:30;101437.89;;;18.30;16.07
64115;BME280;62188;35.640;139.748;2023-04-09T05:31:55;101442.91;;;18.27;16.00
64115;BME280;62188;35.640;139.748;2023-04-09T05:34:21;101440.69;;;18.29;15.98
64115;BME280;62188;35.640;139.748;2023-04-09T05:36:47;101440.86;;;18.23;16.26
64115;BME280;62188;35.640;139.748;2023-04-09T05:39:12;101439.05;;;18.05;15.84
64115;BME280;62188;35.640;139.748;2023-04-09T05:41:38;101444.88;;;18.24;16.59
64115;BME280;62188;35.640;139.748;2023-04-09T05:44:04;101442.64;;;18.32;16.50
64115;BME280;62188;35.640;139.748;2023-04-09T05:46:29;101440.50;;;18.41;17.13
64115;BME280;62188;35.640;139.748;2023-04-09T05:48:54;101436.92;;;18.21;17.22
64115;BME280;62188;35.640;139.748;2023-04-09T05:51:19;101437.40;;;18.66;16.85
64115;BME280;62188;35.640;139.748;2023-04-09T05:53:44;101438.50;;;18.67;16.97
64115;BME280;62188;35.640;139.748;2023-04-09T05:56:14;101434.31;;;18.67;15.60
64115;BME280;62188;35.640;139.748;2023-04-09T05:58:35;101433.98;;;18.49;15.27
64115;BME280;62188;35.640;139.748;2023-04-09T06:01:01;101434.52;;;18.57;15.76
64115;BME280;62188;35.640;139.748;2023-04-09T06:03:27;101439.03;;;18.17;16.16
64115;BME280;62188;35.640;139.748;2023-04-09T06:05:52;101443.43;;;18.34;16.69
64115;BME280;62188;35.640;139.748;2023-04-09T06:08:18;101438.41;;;18.01;17.78
64115;BME280;62188;35.640;139.748;2023-04-09T06:10:43;101441.16;;;17.89;17.76
64115;BME280;62188;35.640;139.748;2023-04-09T06:13:10;101439.87;;;17.91;18.08
64115;BME280;62188;35.640;139.748;2023-04-09T06:15:36;101452.93;;;17.76;18.14
64115;BME280;62188;35.640;139.748;2023-04-09T06:18:00;101440.89;;;17.26;18.27
64115;BME280;62188;35.640;139.748;2023-04-09T06:20:25;101438.99;;;17.52;18.47
64115;BME280;62188;35.640;139.748;2023-04-09T06:22:51;101432.99;;;17.88;18.54
64115;BME280;62188;35.640;139.748;2023-04-09T06:25:17;101431.33;;;17.91;18.00
64115;BME280;62188;35.640;139.748;2023-04-09T06:27:42;101440.75;;;17.82;17.36
64115;BME280;62188;35.640;139.748;2023-04-09T06:30:09;101437.47;;;17.80;17.89
64115;BME280;62188;35.640;139.748;2023-04-09T06:32:33;101439.91;;;17.84;18.00
64115;BME280;62188;35.640;139.748;2023-04-09T06:34:58;101441.59;;;17.87;18.59
64115;BME280;62188;35.640;139.748;2023-04-09T06:37:24;101443.47;;;17.70;18.66
64115;BME280;62188;35.640;139.748;2023-04-09T06:39:50;101444.02;;;18.05;18.60
64115;BME280;62188;35.640;139.748;2023-04-09T06:42:16;101452.21;;;18.14;18.25
64115;BME280;62188;35.640;139.748;2023-04-09T06:44:41;101454.31;;;17.98;17.68
64115;BME280;62188;35.640;139.748;2023-04-09T06:47:07;101464.04;;;17.85;17.62
64115;BME280;62188;35.640;139.748;2023-04-09T06:49:33;101455.55;;;17.96;17.61
64115;BME280;62188;35.640;139.748;2023-04-09T06:51:58;101451.79;;;17.95;18.12
64115;BME280;62188;35.640;139.748;2023-04-09T06:54:23;101453.58;;;17.57;17.95
64115;BME280;62188;35.640;139.748;2023-04-09T06:56:49;101455.90;;;18.03;17.76
64115;BME280;62188;35.640;139.748;2023-04-09T06:59:14;101461.84;;;17.94;17.68
64115;BME280;62188;35.640;139.748;2023-04-09T07:01:39;101463.34;;;17.84;17.78
64115;BME280;62188;35.640;139.748;2023-04-09T07:04:05;101461.77;;;18.27;17.57
64115;BME280;62188;35.640;139.748;2023-04-09T07:06:29;101463.73;;;18.36;17.72
64115;BME280;62188;35.640;139.748;2023-04-09T07:08:55;101462.62;;;18.37;17.79
64115;BME280;62188;35.640;139.748;2023-04-09T07:11:21;101467.90;;;18.33;17.46
64115;BME280;62188;35.640;139.748;2023-04-09T07:13:46;101466.31;;;18.36;17.45
64115;BME280;62188;35.640;139.748;2023-04-09T07:16:12;101468.48;;;18.03;17.69
64115;BME280;62188;35.640;139.748;2023-04-09T07:18:38;101466.58;;;18.59;17.82
64115;BME280;62188;35.640;139.748;2023-04-09T07:21:03;101471.66;;;18.54;17.55
64115;BME280;62188;35.640;139.748;2023-04-09T07:23:30;101470.12;;;18.46;17.66
64115;BME280;62188;35.640;139.748;2023-04-09T07:25:54;101476.38;;;18.21;17.90
64115;BME280;62188;35.640;139.748;2023-04-09T07:28:20;101476.67;;;17.94;18.06
64115;BME280;62188;35.640;139.748;2023-04-09T07:30:45;101479.25;;;17.90;18.12
64115;BME280;62188;35.640;139.748;2023-04-09T07:33:11;101479.30;;;17.94;18.01
64115;BME280;62188;35.640;139.748;2023-04-09T07:35:37;101481.37;;;18.07;18.12
64115;BME280;62188;35.640;139.748;2023-04-09T07:38:02;101485.72;;;17.94;18.21
64115;BME280;62188;35.640;139.748;2023-04-09T07:40:27;101480.32;;;17.63;18.46
64115;BME280;62188;35.640;139.748;2023-04-09T07:42:53;101488.57;;;17.48;18.82
64115;BME280;62188;35.640;139.748;2023-04-09T07:45:19;101493.25;;;17.66;18.85
64115;BME280;62188;35.640;139.748;2023-04-09T07:47:44;101492.69;;;17.66;19.02
64115;BME280;62188;35.640;139.748;2023-04-09T07:50:11;101496.38;;;17.92;19.17
64115;BME280;62188;35.640;139.748;2023-04-09T07:52:36;101502.95;;;17.55;19.39
64115;BME280;62188;35.640;139.748;2023-04-09T07:55:01;101516.80;;;17.58;19.69
64115;BME280;62188;35.640;139.748;2023-04-09T07:57:28;101522.14;;;17.42;19.85
64115;BME280;62188;35.640;139.748;2023-04-09T07:59:53;101528.32;;;17.16;19.59
64115;BME280;62188;35.640;139.748;2023-04-09T08:02:18;101537.26;;;17.54;19.59
64115;BME280;62188;35.640;139.748;2023-04-09T08:04:44;101537.38;;;17.54;19.97
64115;BME280;62188;35.640;139.748;2023-04-09T08:07:09;101545.31;;;17.69;20.23
64115;BME280;62188;35.640;139.748;2023-04-09T08:09:34;101543.89;;;17.76;20.46
64115;BME280;62188;35.640;139.748;2023-04-09T08:12:00;101546.33;;;17.69;20.87
64115;BME280;62188;35.640;139.748;2023-04-09T08:14:25;101546.81;;;17.53;21.32
64115;BME280;62188;35.640;139.748;2023-04-09T08:16:51;101553.75;;;17.58;21.66
64115;BME280;62188;35.640;139.748;2023-04-09T08:19:17;101554.68;;;17.42;21.88
64115;BME280;62188;35.640;139.748;2023-04-09T08:21:43;101560.85;;;17.56;21.96
64115;BME280;62188;35.640;139.748;2023-04-09T08:24:08;101561.45;;;17.87;22.06
64115;BME280;62188;35.640;139.748;2023-04-09T08:26:33;101567.68;;;17.52;21.99
64115;BME280;62188;35.640;139.748;2023-04-09T08:28:59;101565.09;;;17.35;21.77
64115;BME280;62188;35.640;139.748;2023-04-09T08:31:24;101573.98;;;17.34;21.68
64115;BME280;62188;35.640;139.748;2023-04-09T08:33:51;101571.51;;;17.79;21.80
64115;BME280;62188;35.640;139.748;2023-04-09T08:36:16;101574.23;;;17.40;21.88
64115;BME280;62188;35.640;139.748;2023-04-09T08:38:41;101577.19;;;17.13;22.00
64115;BME280;62188;35.640;139.748;2023-04-09T08:41:07;101575.63;;;17.45;21.97
64115;BME280;62188;35.640;139.748;2023-04-09T08:43:33;101575.25;;;17.49;21.91
64115;BME280;62188;35.640;139.748;2023-04-09T08:45:59;101579.30;;;17.79;22.26
64115;BME280;62188;35.640;139.748;2023-04-09T08:48:24;101580.87;;;17.53;22.24
64115;BME280;62188;35.640;139.748;2023-04-09T08:50:50;101582.93;;;17.96;22.38
64115;BME280;62188;35.640;139.748;2023-04-09T08:53:17;101587.02;;;18.10;22.34
64115;BME280;62188;35.640;139.748;2023-04-09T08:55:43;101591.01;;;17.86;22.07
64115;BME280;62188;35.640;139.748;2023-04-09T08:58:06;101596.50;;;17.96;21.88
64115;BME280;62188;35.640;139.748;2023-04-09T09:00:32;101599.86;;;17.94;22.13
64115;BME280;62188;35.640;139.748;2023-04-09T09:03:04;101600.12;;;17.79;22.71
64115;BME280;62188;35.640;139.748;2023-04-09T09:05:35;101606.90;;;17.86;22.93
64115;BME280;62188;35.640;139.748;2023-04-09T09:07:52;101607.76;;;17.84;23.25
64115;BME280;62188;35.640;139.748;2023-04-09T09:10:13;101614.57;;;18.10;23.51
64115;BME280;62188;35.640;139.748;2023-04-09T09:12:40;101615.86;;;17.89;23.50
64115;BME280;62188;35.640;139.748;2023-04-09T09:15:05;101621.11;;;17.89;23.82
64115;BME280;62188;35.640;139.748;2023-04-09T09:17:30;101625.19;;;17.88;23.95
64115;BME280;62188;35.640;139.748;2023-04-09T09:19:55;101624.80;;;17.80;24.35
64115;BME280;62188;35.640;139.748;2023-04-09T09:22:21;101629.76;;;17.90;24.41
64115;BME280;62188;35.640;139.748;2023-04-09T09:24:48;101631.11;;;17.83;24.61
64115;BME280;62188;35.640;139.748;2023-04-09T09:27:12;101633.41;;;17.31;24.76
64115;BME280;62188;35.640;139.748;2023-04-09T09:29:41;101633.72;;;17.79;24.92
64115;BME280;62188;35.640;139.748;2023-04-09T09:32:03;101640.35;;;17.85;25.09
64115;BME280;62188;35.640;139.748;2023-04-09T09:34:28;101645.04;;;17.97;25.36
64115;BME280;62188;35.640;139.748;2023-04-09T09:36:54;101648.77;;;18.08;25.38
64115;BME280;62188;35.640;139.748;2023-04-09T09:39:21;101654.30;;;18.08;25.42
64115;BME280;62188;35.640;139.748;2023-04-09T09:41:46;101660.72;;;18.16;25.42
64115;BME280;62188;35.640;139.748;2023-04-09T09:44:12;101667.75;;;18.23;25.47
64115;BME280;62188;35.640;139.748;2023-04-09T09:46:37;101675.80;;;17.99;25.59
64115;BME280;62188;35.640;139.748;2023-04-09T09:49:02;101675.49;;;17.86;25.75
64115;BME280;62188;35.640;139.748;2023-04-09T09:51:28;101679.28;;;17.91;25.93
64115;BME280;62188;35.640;139.748;2023-04-09T09:53:54;101681.22;;;18.00;25.99
64115;BME280;62188;35.640;139.748;2023-04-09T09:56:20;101688.16;;;17.87;26.15
64115;BME280;62188;35.640;139.748;2023-04-09T09:59:00;101693.08;;;18.40;26.07
64115;BME280;62188;35.640;139.748;2023-04-09T10:01:12;101696.67;;;18.17;26.22
64115;BME280;62188;35.640;139.748;2023-04-09T10:03:36;101700.45;;;18.13;26.47
64115;BME280;62188;35.640;139.748;2023-04-09T10:06:02;101708.54;;;18.30;26.59
64115;BME280;62188;35.640;139.748;2023-04-09T10:08:27;101717.57;;;18.09;26.98
64115;BME280;62188;35.640;139.748;2023-04-09T10:10:52;101725.75;;;18.14;26.96
64115;BME280;62188;35.640;139.748;2023-04-09T10:13:20;101729.95;;;18.18;27.16
64115;BME280;62188;35.640;139.748;2023-04-09T10:15:44;101735.65;;;18.02;27.15
64115;BME280;62188;35.640;139.748;2023-04-09T10:18:08;101739.87;;;18.35;27.26
64115;BME280;62188;35.640;139.748;2023-04-09T10:20:39;101744.50;;;18.40;27.23
64115;BME280;62188;35.640;139.748;2023-04-09T10:23:02;101743.88;;;18.41;27.20
64115;BME280;62188;35.640;139.748;2023-04-09T10:25:25;101745.95;;;18.19;27.19
64115;BME280;62188;35.640;139.748;2023-04-09T10:27:59;101750.08;;;18.21;27.18
64115;BME280;62188;35.640;139.748;2023-04-09T10:30:30;101755.06;;;18.41;27.30
64115;BME280;62188;35.640;139.748;2023-04-09T10:32:41;101755.08;;;18.17;27.37
64115;BME280;62188;35.640;139.748;2023-04-09T10:35:09;101757.54;;;17.93;27.42
64115;BME280;62188;35.640;139.748;2023-04-09T10:37:33;101761.21;;;18.35;27.52
64115;BME280;62188;35.640;139.748;2023-04-09T10:39:58;101767.93;;;18.14;27.67
64115;BME280;62188;35.640;139.748;2023-04-09T10:42:28;101770.81;;;18.40;27.72
64115;BME280;62188;35.640;139.748;2023-04-09T10:49:41;101781.19;;;18.52;27.68
64115;BME280;62188;35.640;139.748;2023-04-09T10:52:07;101784.90;;;18.55;27.78
64115;BME280;62188;35.640;139.748;2023-04-09T10:54:41;101788.01;;;18.35;27.80
64115;BME280;62188;35.640;139.748;2023-04-09T10:57:12;101793.92;;;18.37;27.92
64115;BME280;62188;35.640;139.748;2023-04-09T10:59:22;101793.00;;;18.53;27.92
64115;BME280;62188;35.640;139.748;2023-04-09T11:01:53;101795.58;;;18.10;27.96
64115;BME280;62188;35.640;139.748;2023-04-09T11:04:17;101804.92;;;18.63;28.08
64115;BME280;62188;35.640;139.748;2023-04-09T11:06:40;101811.14;;;18.42;28.08
64115;BME280;62188;35.640;139.748;2023-04-09T11:09:05;101812.68;;;18.40;28.10
64115;BME280;62188;35.640;139.748;2023-04-09T11:11:30;101817.97;;;18.45;27.95
64115;BME280;62188;35.640;139.748;2023-04-09T11:13:59;101820.17;;;18.22;27.91
64115;BME280;62188;35.640;139.748;2023-04-09T11:16:22;101823.80;;;18.70;27.94
64115;BME280;62188;35.640;139.748;2023-04-09T11:18:46;101821.26;;;18.45;28.00
64115;BME280;62188;35.640;139.748;2023-04-09T11:21:12;101820.66;;;18.68;28.08
64115;BME280;62188;35.640;139.748;2023-04-09T11:23:37;101824.79;;;18.59;28.19
64115;BME280;62188;35.640;139.748;2023-04-09T11:26:09;101830.24;;;18.33;28.28
64115;BME280;62188;35.640;139.748;2023-04-09T11:28:28;101832.34;;;18.11;28.31
64115;BME280;62188;35.640;139.748;2023-04-09T11:30:53;101836.08;;;18.11;28.29
64115;BME280;62188;35.640;139.748;2023-04-09T11:33:20;101832.23;;;18.08;28.38
64115;BME280;62188;35.640;139.748;2023-04-09T11:35:45;101835.72;;;18.30;28.42
64115;BME280;62188;35.640;139.748;2023-04-09T11:38:11;101833.04;;;18.30;28.60
64115;BME280;62188;35.640;139.748;2023-04-09T11:40:37;101835.67;;;18.06;28.70
64115;BME280;62188;35.640;139.748;2023-04-09T11:43:01;101838.83;;;18.56;28.68
64115;BME280;62188;35.640;139.748;2023-04-09T11:45:28;101839.31;;;18.57;28.73
64115;BME280;62188;35.640;139.748;2023-04-09T11:47:53;101838.31;;;18.16;28.84
64115;BME280;62188;35.640;139.748;2023-04-09T11:50:19;101836.82;;;18.19;28.76
64115;BME280;62188;35.640;139.748;2023-04-09T11:52:45;101834.92;;;18.42;28.68
64115;BME280;62188;35.640;139.748;2023-04-09T11:55:10;101836.96;;;18.41;28.94
64115;BME280;62188;35.640;139.748;2023-04-09T11:57:42;101839.35;;;18.44;28.90
64115;BME280;62188;35.640;139.748;2023-04-09T12:00:04;101840.20;;;18.45;29.05
64115;BME280;62188;35.640;139.748;2023-04-09T12:02:25;101841.54;;;18.23;29.01
64115;BME280;62188;35.640;139.748;2023-04-09T12:04:51;101842.10;;;18.73;28.98
64115;BME280;62188;35.640;139.748;2023-04-09T12:07:16;101843.62;;;18.43;29.19
64115;BME280;62188;35.640;139.748;2023-04-09T12:09:46;101844.55;;;18.22;29.12
64115;BME280;62188;35.640;139.748;2023-04-09T12:12:08;101844.60;;;18.65;29.15
64115;BME280;62188;35.640;139.748;2023-04-09T12:14:33;101843.71;;;18.39;29.20
64115;BME280;62188;35.640;139.748;2023-04-09T12:16:59;101848.61;;;18.59;29.29
64115;BME280;62188;35.640;139.748;2023-04-09T12:19:25;101845.53;;;18.18;29.24
64115;BME280;62188;35.640;139.748;2023-04-09T12:21:50;101850.02;;;18.71;29.30
64115;BME280;62188;35.640;139.748;2023-04-09T12:24:15;101850.19;;;18.23;29.32
64115;BME280;62188;35.640;139.748;2023-04-09T12:26:41;101850.03;;;18.22;29.41
64115;BME280;62188;35.640;139.748;2023-04-09T12:29:06;101848.85;;;18.25;29.76